Deadhorse Airport Deadhorse US
ICAO: PASC
IATA:
Category: Medium
Scheduled Services:

Elevation: 65 ft
TransAlt. 18000 ft.

Airport Communications:
ATIS:118.4
ANCHORAGE CNTR:134.4
CTAF:123.6
RDO:122.2
UNICOM:123

PASC Zoom In..

Runways:

(A) RW 05 length 6500 ft width 150 ft
ILS 109.30 / hdg 52

(B) RW 06 length 6500 ft width 100 ft
---- / hdg 52

(C) RW 23 length 6500 ft width 150 ft
---- / hdg 232

(D) RW 24 length 6500 ft width 100 ft
---- / hdg 232

Location; PASC
Day. 23 / Time. 09.53 Zulu
* Altimeter: 30.07
* Temperature: 17° c. 62.6°f.
* Wind from: 310° Speed 05 kn.
Dewpoint: 16° c.
Visibility: 10 Statute Miles.
Clouds: Broken 9000 ft.
Clouds: Overcast 12000 ft.

PASC 230953Z 31005KT 10SM BKN090 OVC120 17/16 A3007 RMK AO2 SLP182 T01670156


Wind From 310°
Speed 05 kn.

 
 
jpsmedia.com for Web Design worldairports.se 2018   terms of use